createdAt,value
2023-01-27T00:00:25.071Z,46.07
2023-01-27T00:02:51.690Z,44.57
2023-01-27T00:05:18.736Z,47.17
2023-01-27T00:07:48.156Z,42.40
2023-01-27T00:10:16.634Z,46.97
2023-01-27T00:13:02.906Z,46.90
2023-01-27T00:15:30.944Z,44.00
2023-01-27T00:17:57.449Z,45.03
2023-01-27T00:20:42.573Z,47.97
2023-01-27T00:23:39.431Z,44.40
2023-01-27T00:26:12.520Z,44.47
2023-01-27T00:28:40.317Z,44.03
2023-01-27T00:31:26.497Z,47.17
2023-01-27T00:33:54.187Z,45.07
2023-01-27T00:36:20.673Z,44.07
2023-01-27T00:38:47.171Z,51.97
2023-01-27T00:41:19.549Z,47.20
2023-01-27T00:43:47.017Z,44.00
2023-01-27T00:46:14.342Z,50.00
2023-01-27T00:48:41.035Z,46.93
2023-01-27T00:51:07.601Z,50.40
2023-01-27T00:53:34.060Z,46.47
2023-01-27T00:56:00.642Z,46.33
2023-01-27T00:58:28.927Z,45.57
2023-01-27T01:00:56.531Z,42.03
2023-01-27T01:03:23.205Z,46.43
2023-01-27T01:05:49.977Z,49.93
2023-01-27T01:08:16.819Z,43.80
2023-01-27T01:10:43.416Z,46.83
2023-01-27T01:13:11.837Z,45.67
2023-01-27T01:15:39.718Z,46.70
2023-01-27T01:18:07.147Z,42.47
2023-01-27T01:20:38.369Z,44.50
2023-01-27T01:23:06.062Z,45.07
2023-01-27T01:25:33.070Z,41.90
2023-01-27T01:27:59.712Z,47.37
2023-01-27T01:30:27.372Z,46.70
2023-01-27T01:32:54.577Z,45.57
2023-01-27T01:35:21.927Z,42.53
2023-01-27T01:37:48.518Z,45.00
2023-01-27T01:40:15.207Z,42.80
2023-01-27T01:42:53.637Z,44.10
2023-01-27T01:45:32.212Z,46.10
2023-01-27T01:48:00.005Z,47.47
2023-01-27T01:50:26.502Z,42.73
2023-01-27T01:52:54.455Z,39.50
2023-01-27T01:55:21.561Z,41.13
2023-01-27T01:57:48.777Z,39.40
2023-01-27T02:00:15.987Z,39.07
2023-01-27T02:02:43.327Z,42.87
2023-01-27T02:05:30.547Z,43.33
2023-01-27T02:08:16.271Z,44.00
2023-01-27T02:10:42.931Z,42.30
2023-01-27T02:13:09.611Z,42.17
2023-01-27T02:15:36.306Z,44.67
2023-01-27T02:18:02.980Z,40.93
2023-01-27T02:20:35.354Z,47.50
2023-01-27T02:23:10.723Z,43.33
2023-01-27T02:25:37.139Z,40.13
2023-01-27T02:28:05.990Z,35.30
2023-01-27T02:30:32.862Z,41.53
2023-01-27T02:32:59.589Z,40.70
2023-01-27T02:35:43.875Z,41.10
2023-01-27T02:38:11.778Z,38.17
2023-01-27T02:40:39.121Z,32.37
2023-01-27T02:43:05.602Z,35.23
2023-01-27T02:45:32.062Z,37.60
2023-01-27T02:47:58.598Z,34.03
2023-01-27T02:50:25.129Z,35.40
2023-01-27T02:52:51.598Z,38.37
2023-01-27T02:55:18.095Z,33.57
2023-01-27T02:57:44.735Z,35.67
2023-01-27T03:00:13.961Z,38.13
2023-01-27T03:02:40.631Z,32.73
2023-01-27T03:05:07.931Z,38.97
2023-01-27T03:07:34.412Z,36.07
2023-01-27T03:10:00.920Z,33.30
2023-01-27T03:12:27.483Z,37.77
2023-01-27T03:15:12.870Z,40.10
2023-01-27T03:17:58.184Z,38.53
2023-01-27T03:20:24.919Z,38.60
2023-01-27T03:22:51.532Z,37.33
2023-01-27T03:25:18.035Z,41.23
2023-01-27T03:27:44.791Z,39.13
2023-01-27T03:30:12.575Z,36.40
2023-01-27T03:32:46.379Z,41.90
2023-01-27T03:35:15.880Z,37.87
2023-01-27T03:38:01.551Z,37.33
2023-01-27T03:40:46.431Z,44.07
2023-01-27T03:43:31.877Z,38.90
2023-01-27T03:46:17.005Z,39.77
2023-01-27T03:48:43.464Z,38.17
2023-01-27T03:51:10.457Z,40.37
2023-01-27T03:53:37.466Z,41.03
2023-01-27T03:56:06.158Z,39.03
2023-01-27T03:58:36.879Z,39.53
2023-01-27T04:01:16.592Z,44.43
2023-01-27T04:04:01.811Z,40.70
2023-01-27T04:06:49.191Z,40.87
2023-01-27T04:09:33.989Z,41.30
2023-01-27T04:12:05.408Z,40.17
2023-01-27T04:14:39.141Z,42.50
2023-01-27T04:17:12.804Z,46.33
2023-01-27T04:19:39.476Z,50.37
2023-01-27T04:22:06.758Z,41.20
2023-01-27T04:24:33.383Z,42.50
2023-01-27T04:27:04.734Z,41.53
2023-01-27T04:29:34.804Z,45.50
2023-01-27T04:32:01.822Z,44.00
2023-01-27T04:34:28.359Z,44.47
2023-01-27T04:36:55.530Z,40.33
2023-01-27T04:39:22.493Z,42.40
2023-01-27T04:41:49.744Z,40.43
2023-01-27T04:44:16.557Z,39.53
2023-01-27T04:46:43.015Z,42.67
2023-01-27T04:49:09.767Z,40.17
2023-01-27T04:51:36.403Z,43.37
2023-01-27T04:54:03.845Z,48.23
2023-01-27T04:56:32.414Z,43.60
2023-01-27T04:58:59.993Z,46.23
2023-01-27T05:01:27.196Z,45.60
2023-01-27T05:03:54.102Z,46.40
2023-01-27T05:06:20.991Z,51.30
2023-01-27T05:08:47.892Z,43.40
2023-01-27T05:11:15.296Z,42.87
2023-01-27T05:13:42.059Z,45.87
2023-01-27T05:16:23.234Z,42.53
2023-01-27T05:18:51.114Z,48.60
2023-01-27T05:21:23.769Z,46.73
2023-01-27T05:23:50.512Z,43.20
2023-01-27T05:26:19.364Z,42.73
2023-01-27T05:28:46.839Z,44.33
2023-01-27T05:31:19.039Z,44.27
2023-01-27T05:33:46.349Z,46.80
2023-01-27T05:36:15.021Z,44.07
2023-01-27T05:38:41.612Z,59.67
2023-01-27T05:41:09.652Z,49.90
2023-01-27T05:43:37.963Z,43.57
2023-01-27T05:46:09.034Z,43.23
2023-01-27T05:48:39.074Z,42.90
2023-01-27T05:51:06.029Z,42.53
2023-01-27T05:53:33.306Z,42.13
2023-01-27T05:55:59.940Z,49.97
2023-01-27T05:58:26.769Z,46.30
2023-01-27T06:00:54.478Z,44.87
2023-01-27T06:03:21.583Z,47.80
2023-01-27T06:06:06.891Z,44.20
2023-01-27T06:08:33.995Z,45.00
2023-01-27T06:11:00.744Z,38.77
2023-01-27T06:13:27.427Z,43.00
2023-01-27T06:15:55.830Z,41.63
2023-01-27T06:18:23.661Z,46.23
2023-01-27T06:20:50.392Z,47.43
2023-01-27T06:23:17.473Z,43.43
2023-01-27T06:25:46.297Z,42.70
2023-01-27T06:28:28.349Z,47.00
2023-01-27T06:30:56.162Z,44.77
2023-01-27T06:33:22.985Z,45.50
2023-01-27T06:35:49.503Z,47.90
2023-01-27T06:38:16.064Z,55.93
2023-01-27T06:40:43.444Z,46.30
2023-01-27T06:43:13.668Z,50.87
2023-01-27T06:45:40.612Z,55.43
2023-01-27T06:48:08.573Z,51.27
2023-01-27T06:50:36.139Z,52.03
2023-01-27T06:53:05.204Z,47.80
2023-01-27T06:55:31.912Z,53.87
2023-01-27T06:57:58.565Z,49.93
2023-01-27T07:00:25.276Z,48.57
2023-01-27T07:02:53.854Z,53.80
2023-01-27T07:05:20.490Z,59.93
2023-01-27T07:07:47.248Z,66.37
2023-01-27T07:10:14.065Z,61.07
2023-01-27T07:12:40.761Z,61.57
2023-01-27T07:15:08.792Z,70.07
2023-01-27T07:17:35.758Z,60.60
2023-01-27T07:20:03.480Z,66.17
2023-01-27T07:22:30.038Z,62.43
2023-01-27T07:24:56.641Z,71.00
2023-01-27T07:27:23.977Z,66.57
2023-01-27T07:29:50.625Z,62.10
2023-01-27T07:32:17.297Z,67.67
2023-01-27T07:34:43.905Z,63.77
2023-01-27T07:37:10.865Z,65.80
2023-01-27T07:39:38.115Z,64.67
2023-01-27T07:42:05.400Z,64.67
2023-01-27T07:44:32.129Z,67.77
2023-01-27T07:46:59.072Z,69.07
2023-01-27T07:49:27.567Z,80.13
2023-01-27T07:51:54.475Z,74.43
2023-01-27T07:54:21.183Z,88.97
2023-01-27T07:56:47.669Z,81.50
2023-01-27T07:59:14.412Z,83.60
2023-01-27T08:01:41.893Z,70.37
2023-01-27T08:04:08.707Z,71.97
2023-01-27T08:06:35.195Z,61.30
2023-01-27T08:09:01.764Z,56.87
2023-01-27T08:11:28.304Z,62.50
2023-01-27T08:13:54.851Z,78.70
2023-01-27T08:16:21.375Z,68.67
2023-01-27T08:18:47.871Z,67.57
2023-01-27T08:21:14.350Z,75.43
2023-01-27T08:23:40.908Z,73.07
2023-01-27T08:26:07.930Z,59.37
2023-01-27T08:28:37.716Z,61.23
2023-01-27T08:31:09.331Z,68.17
2023-01-27T08:33:36.516Z,62.23
2023-01-27T08:36:08.786Z,55.40
2023-01-27T08:38:35.562Z,55.50
2023-01-27T08:41:12.027Z,55.57
2023-01-27T08:43:38.747Z,65.53
2023-01-27T08:46:06.626Z,54.80
2023-01-27T08:48:34.345Z,61.77
2023-01-27T08:51:01.500Z,55.97
2023-01-27T08:53:28.461Z,54.33
2023-01-27T08:55:59.277Z,57.40
2023-01-27T08:58:25.748Z,58.17
2023-01-27T09:00:52.243Z,58.17
2023-01-27T09:03:19.036Z,64.47
2023-01-27T09:05:47.309Z,58.93
2023-01-27T09:08:14.632Z,53.33
2023-01-27T09:10:41.714Z,51.83
2023-01-27T09:13:09.128Z,56.30
2023-01-27T09:15:36.527Z,60.73
2023-01-27T09:18:06.253Z,54.97
2023-01-27T09:20:34.415Z,50.47
2023-01-27T09:23:01.217Z,56.77
2023-01-27T09:25:27.826Z,48.00
2023-01-27T09:27:58.476Z,46.00
2023-01-27T09:30:26.433Z,46.50
2023-01-27T09:32:53.211Z,51.47
2023-01-27T09:35:19.853Z,47.63
2023-01-27T09:37:57.729Z,50.10
2023-01-27T09:40:54.672Z,46.00
2023-01-27T09:43:42.817Z,47.70
2023-01-27T09:46:09.292Z,40.67
2023-01-27T09:48:42.419Z,42.53
2023-01-27T09:51:40.947Z,45.00
2023-01-27T09:54:19.559Z,45.97
2023-01-27T09:56:53.830Z,38.87
2023-01-27T09:59:51.592Z,45.10
2023-01-27T10:02:30.556Z,48.60
2023-01-27T10:05:24.930Z,42.43
2023-01-27T10:08:39.780Z,53.50
2023-01-27T10:11:15.595Z,55.70
2023-01-27T10:14:00.272Z,52.67
2023-01-27T10:16:38.476Z,50.53
2023-01-27T10:19:59.254Z,44.50
2023-01-27T10:22:43.894Z,45.80
2023-01-27T10:25:35.281Z,45.50
2023-01-27T10:28:11.986Z,51.00
2023-01-27T10:30:39.817Z,47.13
2023-01-27T10:33:12.031Z,50.53
2023-01-27T10:35:55.607Z,47.93
2023-01-27T10:38:34.168Z,46.57
2023-01-27T10:41:19.851Z,50.03
2023-01-27T10:44:15.265Z,44.00
2023-01-27T10:47:12.018Z,50.63
2023-01-27T10:49:55.442Z,47.57
2023-01-27T10:52:26.024Z,48.50
2023-01-27T10:55:02.091Z,47.73
2023-01-27T10:57:41.987Z,46.80
2023-01-27T11:00:57.765Z,46.03
2023-01-27T11:03:23.827Z,50.67
2023-01-27T11:05:53.029Z,47.93
2023-01-27T11:08:22.753Z,61.40
2023-01-27T11:11:15.075Z,49.53
2023-01-27T11:13:41.857Z,47.80
2023-01-27T11:16:19.630Z,53.43
2023-01-27T11:18:50.180Z,53.90
2023-01-27T11:21:22.663Z,46.67
2023-01-27T11:23:55.894Z,43.57
2023-01-27T11:26:40.906Z,50.80
2023-01-27T11:29:27.773Z,46.87
2023-01-27T11:32:03.515Z,50.87
2023-01-27T11:34:48.853Z,49.70
2023-01-27T11:37:22.125Z,51.30
2023-01-27T11:39:48.830Z,47.43
2023-01-27T11:42:15.661Z,45.17
2023-01-27T11:44:43.141Z,47.93
2023-01-27T11:47:24.327Z,51.93
2023-01-27T11:49:52.428Z,59.37
2023-01-27T11:52:21.299Z,59.40
2023-01-27T11:54:55.859Z,57.17
2023-01-27T11:57:24.767Z,54.37
2023-01-27T12:00:01.693Z,51.77
2023-01-27T12:02:36.741Z,52.20
2023-01-27T12:05:21.635Z,53.57
2023-01-27T12:08:00.233Z,52.00
2023-01-27T12:10:31.651Z,46.27
2023-01-27T12:13:02.137Z,48.80
2023-01-27T12:15:29.880Z,46.30
2023-01-27T12:18:03.022Z,47.27
2023-01-27T12:20:40.711Z,46.73
2023-01-27T12:23:20.418Z,58.13
2023-01-27T12:25:52.454Z,53.50
2023-01-27T12:28:24.964Z,55.40
2023-01-27T12:30:53.195Z,56.20
2023-01-27T12:33:27.423Z,57.63
2023-01-27T12:35:58.358Z,54.80
2023-01-27T12:38:25.730Z,61.60
2023-01-27T12:41:12.565Z,56.07
2023-01-27T12:43:52.115Z,65.30
2023-01-27T12:46:25.467Z,56.90
2023-01-27T12:48:54.696Z,58.90
2023-01-27T12:51:23.430Z,56.43
2023-01-27T12:53:51.319Z,58.03
2023-01-27T12:56:21.133Z,57.53
2023-01-27T12:58:58.505Z,58.00
2023-01-27T13:01:33.977Z,69.60
2023-01-27T13:04:07.124Z,66.63
2023-01-27T13:06:34.817Z,66.03
2023-01-27T13:09:02.047Z,67.27
2023-01-27T13:11:37.735Z,69.30
2023-01-27T13:14:07.970Z,66.47
2023-01-27T13:16:34.651Z,67.87
2023-01-27T13:19:01.535Z,69.47
2023-01-27T13:21:32.823Z,68.40
2023-01-27T13:24:00.395Z,67.80
2023-01-27T13:26:32.636Z,68.80
2023-01-27T13:29:25.587Z,67.60
2023-01-27T13:32:06.862Z,73.70
2023-01-27T13:34:43.427Z,71.37
2023-01-27T13:37:28.265Z,69.93
2023-01-27T13:40:10.133Z,67.83
2023-01-27T13:42:41.401Z,67.60
2023-01-27T13:45:28.689Z,82.50
2023-01-27T13:47:58.835Z,72.63
2023-01-27T13:50:27.752Z,78.07
2023-01-27T13:52:57.470Z,73.30
2023-01-27T13:55:47.723Z,73.43
2023-01-27T13:58:46.169Z,72.07
2023-01-27T14:01:45.916Z,77.67
2023-01-27T14:04:31.521Z,81.60
2023-01-27T14:07:09.453Z,83.37
2023-01-27T14:09:47.978Z,77.70
2023-01-27T14:12:35.880Z,80.33
2023-01-27T14:15:24.335Z,82.77
2023-01-27T14:17:59.607Z,82.30
2023-01-27T14:20:58.839Z,78.00
2023-01-27T14:23:41.013Z,78.73
2023-01-27T14:26:34.915Z,80.70
2023-01-27T14:29:01.359Z,85.43
2023-01-27T14:31:40.991Z,94.87
2023-01-27T14:34:29.783Z,81.87
2023-01-27T14:37:23.018Z,80.80
2023-01-27T14:40:25.031Z,74.80
2023-01-27T14:43:19.410Z,77.10
2023-01-27T14:46:20.947Z,83.10
2023-01-27T14:49:02.239Z,80.17
2023-01-27T14:51:50.694Z,92.23
2023-01-27T14:54:43.477Z,79.60
2023-01-27T14:57:28.784Z,82.10
2023-01-27T15:00:33.264Z,85.67
2023-01-27T15:03:14.354Z,83.43
2023-01-27T15:05:58.318Z,80.90
2023-01-27T15:08:34.973Z,82.53
2023-01-27T15:11:01.614Z,91.23
2023-01-27T15:13:42.403Z,92.23
2023-01-27T15:16:32.572Z,84.60
2023-01-27T15:19:12.376Z,85.43
2023-01-27T15:22:27.118Z,89.30
2023-01-27T15:25:21.331Z,89.17
2023-01-27T15:27:48.711Z,87.67
2023-01-27T15:30:23.080Z,95.70
2023-01-27T15:32:49.630Z,90.07
2023-01-27T15:35:24.824Z,92.50
2023-01-27T15:38:18.825Z,91.50
2023-01-27T15:41:27.106Z,92.87
2023-01-27T15:44:17.038Z,99.00
2023-01-27T15:46:48.485Z,97.47
2023-01-27T15:49:35.459Z,100.07
2023-01-27T15:52:23.707Z,97.07
2023-01-27T15:54:51.773Z,105.47
2023-01-27T15:57:32.836Z,93.63
2023-01-27T16:00:07.980Z,108.97
2023-01-27T16:02:39.811Z,97.80
2023-01-27T16:05:25.697Z,103.03
2023-01-27T16:07:54.134Z,107.70
2023-01-27T16:10:23.824Z,103.70
2023-01-27T16:12:52.437Z,95.80
2023-01-27T16:15:24.606Z,99.77
2023-01-27T16:18:01.308Z,112.13
2023-01-27T16:20:37.741Z,110.80
2023-01-27T16:23:36.143Z,111.63
2023-01-27T16:26:30.149Z,110.63
2023-01-27T16:29:18.942Z,110.33
2023-01-27T16:31:50.480Z,108.97
2023-01-27T16:34:50.758Z,118.40
2023-01-27T16:37:30.986Z,110.67
2023-01-27T16:40:06.229Z,112.87
2023-01-27T16:42:38.543Z,112.63
2023-01-27T16:45:19.403Z,110.43
2023-01-27T16:47:50.546Z,105.23
2023-01-27T16:50:36.726Z,104.37
2023-01-27T16:53:05.898Z,111.87
2023-01-27T16:55:32.677Z,108.10
2023-01-27T16:58:00.271Z,111.73
2023-01-27T17:00:32.706Z,119.83
2023-01-27T17:03:02.899Z,118.23
2023-01-27T17:05:29.559Z,110.80
2023-01-27T17:08:17.302Z,110.70
2023-01-27T17:10:52.125Z,106.93
2023-01-27T17:13:34.259Z,113.20
2023-01-27T17:16:01.942Z,117.73
2023-01-27T17:18:30.066Z,116.07
2023-01-27T17:20:58.373Z,110.90
2023-01-27T17:23:32.112Z,108.87
2023-01-27T17:26:03.325Z,113.60
2023-01-27T17:28:29.886Z,107.67
2023-01-27T17:31:06.054Z,103.90
2023-01-27T17:33:34.258Z,109.40
2023-01-27T17:36:08.411Z,114.00
2023-01-27T17:38:49.415Z,118.90
2023-01-27T17:41:27.922Z,106.67
2023-01-27T17:43:58.897Z,122.37
2023-01-27T17:46:26.979Z,119.03
2023-01-27T17:48:55.609Z,116.97
2023-01-27T17:51:27.865Z,109.83
2023-01-27T17:53:55.016Z,112.33
2023-01-27T17:56:24.263Z,100.27
2023-01-27T17:58:56.907Z,111.53
2023-01-27T18:01:23.636Z,103.60
2023-01-27T18:03:54.002Z,110.23
2023-01-27T18:06:23.283Z,94.10
2023-01-27T18:08:55.216Z,88.40
2023-01-27T18:11:25.640Z,84.03
2023-01-27T18:13:54.275Z,85.77
2023-01-27T18:16:23.540Z,93.97
2023-01-27T18:18:50.649Z,94.90
2023-01-27T18:21:25.375Z,81.77
2023-01-27T18:23:55.443Z,86.70
2023-01-27T18:26:30.656Z,88.73
2023-01-27T18:29:06.853Z,86.07
2023-01-27T18:31:54.894Z,85.97
2023-01-27T18:34:44.063Z,80.60
2023-01-27T18:37:37.472Z,75.90
2023-01-27T18:40:39.951Z,92.50
2023-01-27T18:43:06.547Z,77.80
2023-01-27T18:45:33.136Z,80.03
2023-01-27T18:47:59.886Z,79.50
2023-01-27T18:50:27.092Z,85.70
2023-01-27T18:52:54.366Z,81.47
2023-01-27T18:55:26.841Z,80.07
2023-01-27T18:58:02.640Z,80.03
2023-01-27T19:00:45.569Z,70.23
2023-01-27T19:03:19.290Z,69.63
2023-01-27T19:05:46.656Z,79.60
2023-01-27T19:08:18.366Z,78.53
2023-01-27T19:10:46.597Z,82.20
2023-01-27T19:13:14.610Z,66.63
2023-01-27T19:15:50.458Z,79.80
2023-01-27T19:18:33.822Z,79.17
2023-01-27T19:21:01.505Z,71.40
2023-01-27T19:23:28.115Z,78.27
2023-01-27T19:25:57.580Z,76.40
2023-01-27T19:28:30.775Z,79.87
2023-01-27T19:30:57.964Z,79.03
2023-01-27T19:33:26.068Z,80.43
2023-01-27T19:35:58.537Z,81.80
2023-01-27T19:38:27.102Z,88.50
2023-01-27T19:40:53.690Z,81.07
2023-01-27T19:43:20.335Z,73.77
2023-01-27T19:45:48.587Z,83.50
2023-01-27T19:48:17.762Z,91.73
2023-01-27T19:50:44.410Z,78.60
2023-01-27T19:53:15.815Z,78.33
2023-01-27T19:55:42.872Z,74.20
2023-01-27T19:58:21.409Z,79.37
2023-01-27T20:00:47.959Z,77.37
2023-01-27T20:03:15.027Z,75.30
2023-01-27T20:05:41.680Z,73.10
2023-01-27T20:08:18.638Z,75.13
2023-01-27T20:10:45.829Z,72.43
2023-01-27T20:13:17.314Z,76.63
2023-01-27T20:15:44.480Z,84.70
2023-01-27T20:18:16.120Z,82.37
2023-01-27T20:20:44.207Z,88.80
2023-01-27T20:23:14.505Z,85.63
2023-01-27T20:25:41.033Z,79.10
2023-01-27T20:28:08.124Z,82.60
2023-01-27T20:30:34.862Z,87.43
2023-01-27T20:33:02.931Z,77.47
2023-01-27T20:35:29.971Z,92.23
2023-01-27T20:37:56.610Z,87.77
2023-01-27T20:40:25.328Z,84.70
2023-01-27T20:42:52.762Z,81.60
2023-01-27T20:45:19.962Z,86.63
2023-01-27T20:47:50.781Z,80.83
2023-01-27T20:50:17.573Z,87.80
2023-01-27T20:52:44.245Z,80.43
2023-01-27T20:55:12.264Z,84.33
2023-01-27T20:57:38.971Z,79.20
2023-01-27T21:00:06.092Z,87.73
2023-01-27T21:02:32.833Z,78.27
2023-01-27T21:04:59.717Z,86.67
2023-01-27T21:07:26.343Z,81.17
2023-01-27T21:09:53.538Z,76.63
2023-01-27T21:12:21.251Z,83.70
2023-01-27T21:14:47.814Z,87.37
2023-01-27T21:17:14.688Z,80.90
2023-01-27T21:19:41.341Z,75.57
2023-01-27T21:22:07.820Z,76.83
2023-01-27T21:24:35.442Z,83.40
2023-01-27T21:27:01.912Z,76.80
2023-01-27T21:29:28.469Z,84.90
2023-01-27T21:31:55.008Z,92.37
2023-01-27T21:34:21.931Z,85.50
2023-01-27T21:36:49.085Z,83.43
2023-01-27T21:39:15.739Z,83.33
2023-01-27T21:41:54.529Z,83.07
2023-01-27T21:44:41.427Z,78.63
2023-01-27T21:47:10.020Z,79.47
2023-01-27T21:49:58.492Z,82.00
2023-01-27T21:52:37.438Z,81.27
2023-01-27T21:55:06.494Z,77.23
2023-01-27T21:57:33.319Z,76.97
2023-01-27T21:59:59.845Z,76.03
2023-01-27T22:02:26.432Z,75.60
2023-01-27T22:04:53.133Z,68.97
2023-01-27T22:07:19.892Z,75.50
2023-01-27T22:09:46.644Z,76.43
2023-01-27T22:12:15.254Z,87.33
2023-01-27T22:14:42.098Z,65.83
2023-01-27T22:17:09.342Z,77.27
2023-01-27T22:19:41.507Z,70.07
2023-01-27T22:22:10.203Z,71.17
2023-01-27T22:24:36.722Z,75.47
2023-01-27T22:27:03.412Z,72.30
2023-01-27T22:29:30.021Z,63.23
2023-01-27T22:31:56.626Z,71.73
2023-01-27T22:34:23.168Z,71.17
2023-01-27T22:36:49.798Z,72.83
2023-01-27T22:39:16.930Z,65.47
2023-01-27T22:41:44.536Z,66.40
2023-01-27T22:44:13.222Z,67.20
2023-01-27T22:46:41.550Z,77.10
2023-01-27T22:49:08.864Z,77.50
2023-01-27T22:51:35.301Z,69.50
2023-01-27T22:54:01.811Z,75.93
2023-01-27T22:56:29.158Z,66.23
2023-01-27T22:58:55.811Z,75.47
2023-01-27T23:01:22.325Z,71.87
2023-01-27T23:03:48.929Z,69.83
2023-01-27T23:06:16.731Z,69.77
2023-01-27T23:08:43.206Z,69.60
2023-01-27T23:11:09.683Z,63.30
2023-01-27T23:13:36.489Z,70.13
2023-01-27T23:16:03.467Z,68.63
2023-01-27T23:18:30.078Z,73.20
2023-01-27T23:21:06.403Z,73.63
2023-01-27T23:23:33.767Z,73.13
2023-01-27T23:26:00.412Z,71.93
2023-01-27T23:28:26.933Z,64.63
2023-01-27T23:30:53.850Z,66.53
2023-01-27T23:33:20.662Z,68.77
2023-01-27T23:35:47.649Z,68.80
2023-01-27T23:38:30.343Z,74.03
2023-01-27T23:41:13.575Z,65.13
2023-01-27T23:43:40.090Z,72.67
2023-01-27T23:46:06.668Z,66.80
2023-01-27T23:48:33.243Z,64.27
2023-01-27T23:51:05.944Z,72.17
2023-01-27T23:53:32.384Z,66.40
2023-01-27T23:55:59.567Z,62.57
2023-01-27T23:58:26.524Z,78.17
